sensor_id;sensor_type;location;lat;lon;timestamp;P1;durP1;ratioP1;P2;durP2;ratioP2
41253;SDS011;26987;59.928;30.306;2022-08-25T00:02:05;9.18;;;4.97;;
41253;SDS011;26987;59.928;30.306;2022-08-25T00:04:36;9.15;;;4.53;;
41253;SDS011;26987;59.928;30.306;2022-08-25T00:07:04;9.85;;;4.35;;
41253;SDS011;26987;59.928;30.306;2022-08-25T00:09:33;6.72;;;4.55;;
41253;SDS011;26987;59.928;30.306;2022-08-25T00:12:02;10.70;;;5.03;;
41253;SDS011;26987;59.928;30.306;2022-08-25T00:14:31;9.68;;;4.82;;
41253;SDS011;26987;59.928;30.306;2022-08-25T00:17:04;11.15;;;5.35;;
41253;SDS011;26987;59.928;30.306;2022-08-25T00:19:34;8.63;;;4.47;;
41253;SDS011;26987;59.928;30.306;2022-08-25T00:22:03;11.27;;;5.55;;
41253;SDS011;26987;59.928;30.306;2022-08-25T00:24:32;6.53;;;4.80;;
41253;SDS011;26987;59.928;30.306;2022-08-25T00:27:00;14.55;;;5.00;;
41253;SDS011;26987;59.928;30.306;2022-08-25T00:29:29;13.73;;;6.38;;
41253;SDS011;26987;59.928;30.306;2022-08-25T00:31:58;9.68;;;4.97;;
41253;SDS011;26987;59.928;30.306;2022-08-25T00:34:29;9.15;;;4.88;;
41253;SDS011;26987;59.928;30.306;2022-08-25T00:36:59;9.63;;;5.10;;
41253;SDS011;26987;59.928;30.306;2022-08-25T00:39:27;15.93;;;5.45;;
41253;SDS011;26987;59.928;30.306;2022-08-25T00:41:55;11.65;;;5.18;;
41253;SDS011;26987;59.928;30.306;2022-08-25T00:44:25;13.85;;;5.93;;
41253;SDS011;26987;59.928;30.306;2022-08-25T00:46:55;8.45;;;4.50;;
41253;SDS011;26987;59.928;30.306;2022-08-25T00:49:26;9.95;;;5.25;;
41253;SDS011;26987;59.928;30.306;2022-08-25T00:51:59;12.00;;;4.57;;
41253;SDS011;26987;59.928;30.306;2022-08-25T00:54:30;8.63;;;4.60;;
41253;SDS011;26987;59.928;30.306;2022-08-25T00:57:01;11.02;;;4.90;;
41253;SDS011;26987;59.928;30.306;2022-08-25T00:59:31;7.93;;;4.95;;
41253;SDS011;26987;59.928;30.306;2022-08-25T01:02:01;9.80;;;5.13;;
41253;SDS011;26987;59.928;30.306;2022-08-25T01:04:33;13.50;;;5.35;;
41253;SDS011;26987;59.928;30.306;2022-08-25T01:07:02;11.02;;;4.72;;
41253;SDS011;26987;59.928;30.306;2022-08-25T01:09:33;11.80;;;4.57;;
41253;SDS011;26987;59.928;30.306;2022-08-25T01:12:02;9.55;;;4.80;;
41253;SDS011;26987;59.928;30.306;2022-08-25T01:14:31;18.95;;;5.00;;
41253;SDS011;26987;59.928;30.306;2022-08-25T01:17:00;9.57;;;5.45;;
41253;SDS011;26987;59.928;30.306;2022-08-25T01:19:29;12.60;;;5.43;;
41253;SDS011;26987;59.928;30.306;2022-08-25T01:21:59;17.85;;;4.95;;
41253;SDS011;26987;59.928;30.306;2022-08-25T01:24:30;18.25;;;5.60;;
41253;SDS011;26987;59.928;30.306;2022-08-25T01:27:03;15.68;;;6.47;;
41253;SDS011;26987;59.928;30.306;2022-08-25T01:29:32;10.57;;;4.95;;
41253;SDS011;26987;59.928;30.306;2022-08-25T01:32:02;11.95;;;5.32;;
41253;SDS011;26987;59.928;30.306;2022-08-25T01:34:34;13.60;;;6.38;;
41253;SDS011;26987;59.928;30.306;2022-08-25T01:37:09;12.82;;;5.47;;
41253;SDS011;26987;59.928;30.306;2022-08-25T01:39:39;12.18;;;5.93;;
41253;SDS011;26987;59.928;30.306;2022-08-25T01:42:18;13.18;;;5.57;;
41253;SDS011;26987;59.928;30.306;2022-08-25T01:44:54;15.52;;;5.75;;
41253;SDS011;26987;59.928;30.306;2022-08-25T01:47:22;12.57;;;5.50;;
41253;SDS011;26987;59.928;30.306;2022-08-25T01:49:50;10.52;;;6.15;;
41253;SDS011;26987;59.928;30.306;2022-08-25T01:52:20;12.15;;;5.43;;
41253;SDS011;26987;59.928;30.306;2022-08-25T01:54:54;13.95;;;5.78;;
41253;SDS011;26987;59.928;30.306;2022-08-25T01:57:22;12.75;;;6.03;;
41253;SDS011;26987;59.928;30.306;2022-08-25T01:59:50;15.63;;;5.65;;
41253;SDS011;26987;59.928;30.306;2022-08-25T02:02:18;14.93;;;7.10;;
41253;SDS011;26987;59.928;30.306;2022-08-25T02:04:46;17.98;;;7.68;;
41253;SDS011;26987;59.928;30.306;2022-08-25T02:07:14;18.23;;;7.93;;
41253;SDS011;26987;59.928;30.306;2022-08-25T02:09:43;23.13;;;7.68;;
41253;SDS011;26987;59.928;30.306;2022-08-25T02:12:12;19.50;;;8.80;;
41253;SDS011;26987;59.928;30.306;2022-08-25T02:14:41;23.50;;;9.30;;
41253;SDS011;26987;59.928;30.306;2022-08-25T02:17:09;23.48;;;8.30;;
41253;SDS011;26987;59.928;30.306;2022-08-25T02:19:37;24.98;;;8.50;;
41253;SDS011;26987;59.928;30.306;2022-08-25T02:22:05;37.65;;;9.27;;
41253;SDS011;26987;59.928;30.306;2022-08-25T02:24:33;18.83;;;8.98;;
41253;SDS011;26987;59.928;30.306;2022-08-25T02:27:03;15.20;;;7.57;;
41253;SDS011;26987;59.928;30.306;2022-08-25T02:29:31;17.17;;;7.38;;
41253;SDS011;26987;59.928;30.306;2022-08-25T02:31:59;16.05;;;7.72;;
41253;SDS011;26987;59.928;30.306;2022-08-25T02:34:28;19.55;;;8.32;;
41253;SDS011;26987;59.928;30.306;2022-08-25T02:36:56;14.90;;;7.70;;
41253;SDS011;26987;59.928;30.306;2022-08-25T02:39:24;20.10;;;7.40;;
41253;SDS011;26987;59.928;30.306;2022-08-25T02:41:51;18.17;;;7.80;;
41253;SDS011;26987;59.928;30.306;2022-08-25T02:44:21;17.15;;;7.80;;
41253;SDS011;26987;59.928;30.306;2022-08-25T02:46:49;25.95;;;8.20;;
41253;SDS011;26987;59.928;30.306;2022-08-25T02:49:17;21.25;;;7.80;;
41253;SDS011;26987;59.928;30.306;2022-08-25T02:51:44;17.52;;;7.30;;
41253;SDS011;26987;59.928;30.306;2022-08-25T02:54:12;16.00;;;8.68;;
41253;SDS011;26987;59.928;30.306;2022-08-25T02:56:41;21.77;;;7.93;;
41253;SDS011;26987;59.928;30.306;2022-08-25T02:59:09;15.90;;;8.55;;
41253;SDS011;26987;59.928;30.306;2022-08-25T03:01:38;21.48;;;8.18;;
41253;SDS011;26987;59.928;30.306;2022-08-25T03:04:06;22.63;;;8.52;;
41253;SDS011;26987;59.928;30.306;2022-08-25T03:06:34;16.50;;;8.02;;
41253;SDS011;26987;59.928;30.306;2022-08-25T03:09:02;14.18;;;7.78;;
41253;SDS011;26987;59.928;30.306;2022-08-25T03:11:30;21.65;;;8.98;;
41253;SDS011;26987;59.928;30.306;2022-08-25T03:13:59;21.45;;;8.63;;
41253;SDS011;26987;59.928;30.306;2022-08-25T03:16:26;19.55;;;8.82;;
41253;SDS011;26987;59.928;30.306;2022-08-25T03:18:56;20.52;;;8.32;;
41253;SDS011;26987;59.928;30.306;2022-08-25T03:21:24;12.90;;;7.10;;
41253;SDS011;26987;59.928;30.306;2022-08-25T03:23:52;20.40;;;8.82;;
41253;SDS011;26987;59.928;30.306;2022-08-25T03:26:20;18.67;;;8.75;;
41253;SDS011;26987;59.928;30.306;2022-08-25T03:29:05;17.65;;;8.38;;
41253;SDS011;26987;59.928;30.306;2022-08-25T03:31:35;21.00;;;8.80;;
41253;SDS011;26987;59.928;30.306;2022-08-25T03:34:05;19.85;;;8.88;;
41253;SDS011;26987;59.928;30.306;2022-08-25T03:36:33;14.15;;;8.23;;
41253;SDS011;26987;59.928;30.306;2022-08-25T03:39:01;18.80;;;8.60;;
41253;SDS011;26987;59.928;30.306;2022-08-25T03:41:30;19.02;;;8.95;;
41253;SDS011;26987;59.928;30.306;2022-08-25T03:43:59;18.88;;;9.40;;
41253;SDS011;26987;59.928;30.306;2022-08-25T03:46:28;23.95;;;9.85;;
41253;SDS011;26987;59.928;30.306;2022-08-25T03:48:59;28.58;;;10.75;;
41253;SDS011;26987;59.928;30.306;2022-08-25T03:51:30;25.98;;;9.82;;
41253;SDS011;26987;59.928;30.306;2022-08-25T03:53:59;22.30;;;10.95;;
41253;SDS011;26987;59.928;30.306;2022-08-25T03:56:29;26.17;;;10.60;;
41253;SDS011;26987;59.928;30.306;2022-08-25T03:58:57;20.15;;;9.82;;
41253;SDS011;26987;59.928;30.306;2022-08-25T04:01:25;21.73;;;10.65;;
41253;SDS011;26987;59.928;30.306;2022-08-25T04:03:53;24.50;;;10.65;;
41253;SDS011;26987;59.928;30.306;2022-08-25T04:06:21;35.05;;;12.25;;
41253;SDS011;26987;59.928;30.306;2022-08-25T04:08:50;26.30;;;11.40;;
41253;SDS011;26987;59.928;30.306;2022-08-25T04:11:19;19.38;;;11.40;;
41253;SDS011;26987;59.928;30.306;2022-08-25T04:13:49;26.33;;;11.55;;
41253;SDS011;26987;59.928;30.306;2022-08-25T04:16:19;23.98;;;11.65;;
41253;SDS011;26987;59.928;30.306;2022-08-25T04:18:48;24.13;;;11.93;;
41253;SDS011;26987;59.928;30.306;2022-08-25T04:21:17;31.73;;;12.80;;
41253;SDS011;26987;59.928;30.306;2022-08-25T04:23:46;29.92;;;12.10;;
41253;SDS011;26987;59.928;30.306;2022-08-25T04:26:17;23.08;;;11.52;;
41253;SDS011;26987;59.928;30.306;2022-08-25T04:28:47;21.83;;;11.82;;
41253;SDS011;26987;59.928;30.306;2022-08-25T04:31:16;26.65;;;11.68;;
41253;SDS011;26987;59.928;30.306;2022-08-25T04:33:46;20.90;;;10.98;;
41253;SDS011;26987;59.928;30.306;2022-08-25T04:36:15;22.17;;;10.95;;
41253;SDS011;26987;59.928;30.306;2022-08-25T04:38:44;23.52;;;10.77;;
41253;SDS011;26987;59.928;30.306;2022-08-25T04:41:15;23.00;;;10.30;;
41253;SDS011;26987;59.928;30.306;2022-08-25T04:43:46;19.88;;;10.40;;
41253;SDS011;26987;59.928;30.306;2022-08-25T04:46:15;19.98;;;9.50;;
41253;SDS011;26987;59.928;30.306;2022-08-25T04:48:44;18.40;;;9.90;;
41253;SDS011;26987;59.928;30.306;2022-08-25T04:51:13;23.30;;;10.10;;
41253;SDS011;26987;59.928;30.306;2022-08-25T04:53:43;29.63;;;11.63;;
41253;SDS011;26987;59.928;30.306;2022-08-25T04:56:12;19.02;;;9.85;;
41253;SDS011;26987;59.928;30.306;2022-08-25T04:58:43;14.18;;;9.18;;
41253;SDS011;26987;59.928;30.306;2022-08-25T05:01:12;21.02;;;9.95;;
41253;SDS011;26987;59.928;30.306;2022-08-25T05:03:43;22.05;;;10.13;;
41253;SDS011;26987;59.928;30.306;2022-08-25T05:06:11;17.75;;;8.60;;
41253;SDS011;26987;59.928;30.306;2022-08-25T05:08:40;16.02;;;8.43;;
41253;SDS011;26987;59.928;30.306;2022-08-25T05:11:08;14.05;;;7.97;;
41253;SDS011;26987;59.928;30.306;2022-08-25T05:13:39;24.02;;;8.68;;
41253;SDS011;26987;59.928;30.306;2022-08-25T05:16:09;21.70;;;7.78;;
41253;SDS011;26987;59.928;30.306;2022-08-25T05:18:37;17.05;;;6.90;;
41253;SDS011;26987;59.928;30.306;2022-08-25T05:21:08;24.70;;;7.82;;
41253;SDS011;26987;59.928;30.306;2022-08-25T05:23:38;12.82;;;6.65;;
41253;SDS011;26987;59.928;30.306;2022-08-25T05:26:08;17.25;;;7.30;;
41253;SDS011;26987;59.928;30.306;2022-08-25T05:28:38;15.85;;;7.60;;
41253;SDS011;26987;59.928;30.306;2022-08-25T05:31:07;17.25;;;6.32;;
41253;SDS011;26987;59.928;30.306;2022-08-25T05:33:39;19.25;;;6.93;;
41253;SDS011;26987;59.928;30.306;2022-08-25T05:36:08;18.73;;;7.13;;
41253;SDS011;26987;59.928;30.306;2022-08-25T05:38:37;17.77;;;7.47;;
41253;SDS011;26987;59.928;30.306;2022-08-25T05:41:08;23.73;;;7.60;;
41253;SDS011;26987;59.928;30.306;2022-08-25T05:43:38;14.60;;;6.47;;
41253;SDS011;26987;59.928;30.306;2022-08-25T05:46:08;15.20;;;6.97;;
41253;SDS011;26987;59.928;30.306;2022-08-25T05:48:38;14.48;;;5.95;;
41253;SDS011;26987;59.928;30.306;2022-08-25T05:51:08;15.73;;;5.97;;
41253;SDS011;26987;59.928;30.306;2022-08-25T05:53:37;18.88;;;5.47;;
41253;SDS011;26987;59.928;30.306;2022-08-25T05:56:06;13.48;;;5.40;;
41253;SDS011;26987;59.928;30.306;2022-08-25T05:58:35;15.45;;;4.55;;
41253;SDS011;26987;59.928;30.306;2022-08-25T06:01:04;13.93;;;5.47;;
41253;SDS011;26987;59.928;30.306;2022-08-25T06:03:48;10.95;;;4.68;;
41253;SDS011;26987;59.928;30.306;2022-08-25T06:06:18;14.50;;;5.30;;
41253;SDS011;26987;59.928;30.306;2022-08-25T06:08:46;15.05;;;4.97;;
41253;SDS011;26987;59.928;30.306;2022-08-25T06:11:14;13.30;;;4.60;;
41253;SDS011;26987;59.928;30.306;2022-08-25T06:13:42;13.25;;;4.50;;
41253;SDS011;26987;59.928;30.306;2022-08-25T06:16:10;16.60;;;5.38;;
41253;SDS011;26987;59.928;30.306;2022-08-25T06:18:38;9.10;;;4.57;;
41253;SDS011;26987;59.928;30.306;2022-08-25T06:21:09;11.40;;;4.18;;
41253;SDS011;26987;59.928;30.306;2022-08-25T06:23:38;13.30;;;4.45;;
41253;SDS011;26987;59.928;30.306;2022-08-25T06:26:06;10.88;;;4.15;;
41253;SDS011;26987;59.928;30.306;2022-08-25T06:28:39;17.02;;;4.68;;
41253;SDS011;26987;59.928;30.306;2022-08-25T06:31:07;12.43;;;5.50;;
41253;SDS011;26987;59.928;30.306;2022-08-25T06:33:35;19.25;;;5.70;;
41253;SDS011;26987;59.928;30.306;2022-08-25T06:36:03;18.58;;;4.70;;
41253;SDS011;26987;59.928;30.306;2022-08-25T06:38:33;20.42;;;8.02;;
41253;SDS011;26987;59.928;30.306;2022-08-25T06:41:01;19.25;;;8.75;;
41253;SDS011;26987;59.928;30.306;2022-08-25T06:43:30;12.70;;;4.70;;
41253;SDS011;26987;59.928;30.306;2022-08-25T06:46:06;11.40;;;4.10;;
41253;SDS011;26987;59.928;30.306;2022-08-25T06:48:35;12.90;;;4.15;;
41253;SDS011;26987;59.928;30.306;2022-08-25T06:51:04;10.80;;;4.20;;
41253;SDS011;26987;59.928;30.306;2022-08-25T06:53:35;12.88;;;4.95;;
41253;SDS011;26987;59.928;30.306;2022-08-25T06:56:04;13.07;;;4.35;;
41253;SDS011;26987;59.928;30.306;2022-08-25T06:58:33;19.75;;;5.30;;
41253;SDS011;26987;59.928;30.306;2022-08-25T07:01:07;20.00;;;4.78;;
41253;SDS011;26987;59.928;30.306;2022-08-25T07:03:37;10.93;;;4.97;;
41253;SDS011;26987;59.928;30.306;2022-08-25T07:06:05;16.90;;;4.88;;
41253;SDS011;26987;59.928;30.306;2022-08-25T07:08:35;11.05;;;4.22;;
41253;SDS011;26987;59.928;30.306;2022-08-25T07:11:04;17.25;;;4.88;;
41253;SDS011;26987;59.928;30.306;2022-08-25T07:13:33;18.65;;;5.93;;
41253;SDS011;26987;59.928;30.306;2022-08-25T07:16:01;38.22;;;8.13;;
41253;SDS011;26987;59.928;30.306;2022-08-25T07:18:29;17.42;;;6.45;;
41253;SDS011;26987;59.928;30.306;2022-08-25T07:20:58;20.65;;;7.07;;
41253;SDS011;26987;59.928;30.306;2022-08-25T07:23:26;54.92;;;10.45;;
41253;SDS011;26987;59.928;30.306;2022-08-25T07:25:56;21.98;;;7.88;;
41253;SDS011;26987;59.928;30.306;2022-08-25T07:28:34;27.77;;;7.05;;
41253;SDS011;26987;59.928;30.306;2022-08-25T07:31:02;20.27;;;7.18;;
41253;SDS011;26987;59.928;30.306;2022-08-25T07:33:30;22.05;;;7.05;;
41253;SDS011;26987;59.928;30.306;2022-08-25T07:35:58;24.13;;;8.10;;
41253;SDS011;26987;59.928;30.306;2022-08-25T07:38:25;22.50;;;6.63;;
41253;SDS011;26987;59.928;30.306;2022-08-25T07:41:01;20.85;;;7.32;;
41253;SDS011;26987;59.928;30.306;2022-08-25T07:43:29;26.67;;;7.38;;
41253;SDS011;26987;59.928;30.306;2022-08-25T07:45:57;16.65;;;7.07;;
41253;SDS011;26987;59.928;30.306;2022-08-25T07:48:25;19.60;;;8.13;;
41253;SDS011;26987;59.928;30.306;2022-08-25T07:50:53;18.60;;;8.38;;
41253;SDS011;26987;59.928;30.306;2022-08-25T07:53:22;18.63;;;7.80;;
41253;SDS011;26987;59.928;30.306;2022-08-25T07:55:50;24.85;;;6.82;;
41253;SDS011;26987;59.928;30.306;2022-08-25T07:58:19;14.90;;;5.93;;
41253;SDS011;26987;59.928;30.306;2022-08-25T08:00:47;13.57;;;5.07;;
41253;SDS011;26987;59.928;30.306;2022-08-25T08:03:18;16.23;;;5.35;;
41253;SDS011;26987;59.928;30.306;2022-08-25T08:05:47;11.93;;;4.40;;
41253;SDS011;26987;59.928;30.306;2022-08-25T08:08:15;12.55;;;5.00;;
41253;SDS011;26987;59.928;30.306;2022-08-25T08:10:43;15.48;;;4.95;;
41253;SDS011;26987;59.928;30.306;2022-08-25T08:13:11;11.95;;;4.40;;
41253;SDS011;26987;59.928;30.306;2022-08-25T08:15:41;14.73;;;4.78;;
41253;SDS011;26987;59.928;30.306;2022-08-25T08:18:10;15.32;;;4.40;;
41253;SDS011;26987;59.928;30.306;2022-08-25T08:20:38;17.20;;;5.35;;
41253;SDS011;26987;59.928;30.306;2022-08-25T08:23:06;16.77;;;5.43;;
41253;SDS011;26987;59.928;30.306;2022-08-25T08:25:33;15.05;;;5.00;;
41253;SDS011;26987;59.928;30.306;2022-08-25T08:28:02;16.02;;;4.50;;
41253;SDS011;26987;59.928;30.306;2022-08-25T08:30:30;18.35;;;4.78;;
41253;SDS011;26987;59.928;30.306;2022-08-25T08:32:59;13.43;;;4.32;;
41253;SDS011;26987;59.928;30.306;2022-08-25T08:35:27;11.43;;;4.15;;
41253;SDS011;26987;59.928;30.306;2022-08-25T08:37:55;14.90;;;4.18;;
41253;SDS011;26987;59.928;30.306;2022-08-25T08:40:23;14.93;;;5.07;;
41253;SDS011;26987;59.928;30.306;2022-08-25T08:42:57;17.40;;;4.85;;
41253;SDS011;26987;59.928;30.306;2022-08-25T08:45:32;10.23;;;4.47;;
41253;SDS011;26987;59.928;30.306;2022-08-25T08:48:16;9.80;;;4.40;;
41253;SDS011;26987;59.928;30.306;2022-08-25T08:50:56;15.35;;;5.15;;
41253;SDS011;26987;59.928;30.306;2022-08-25T08:53:37;20.17;;;5.40;;
41253;SDS011;26987;59.928;30.306;2022-08-25T08:56:10;20.08;;;5.05;;
41253;SDS011;26987;59.928;30.306;2022-08-25T08:58:42;18.88;;;5.63;;
41253;SDS011;26987;59.928;30.306;2022-08-25T09:01:14;15.00;;;5.03;;
41253;SDS011;26987;59.928;30.306;2022-08-25T09:03:48;15.38;;;5.32;;
41253;SDS011;26987;59.928;30.306;2022-08-25T09:06:23;37.17;;;19.75;;
41253;SDS011;26987;59.928;30.306;2022-08-25T09:08:58;15.98;;;5.80;;
41253;SDS011;26987;59.928;30.306;2022-08-25T09:11:30;20.95;;;6.05;;
41253;SDS011;26987;59.928;30.306;2022-08-25T09:14:10;10.38;;;4.85;;
41253;SDS011;26987;59.928;30.306;2022-08-25T09:16:50;21.55;;;5.65;;
41253;SDS011;26987;59.928;30.306;2022-08-25T09:19:32;15.82;;;4.95;;
41253;SDS011;26987;59.928;30.306;2022-08-25T09:22:23;20.27;;;6.38;;
41253;SDS011;26987;59.928;30.306;2022-08-25T09:25:03;12.27;;;5.07;;
41253;SDS011;26987;59.928;30.306;2022-08-25T09:27:38;22.80;;;5.65;;
41253;SDS011;26987;59.928;30.306;2022-08-25T09:30:12;13.75;;;5.20;;
41253;SDS011;26987;59.928;30.306;2022-08-25T09:32:42;11.48;;;5.68;;
41253;SDS011;26987;59.928;30.306;2022-08-25T09:35:16;14.20;;;5.68;;
41253;SDS011;26987;59.928;30.306;2022-08-25T09:37:56;11.27;;;5.93;;
41253;SDS011;26987;59.928;30.306;2022-08-25T09:40:25;12.68;;;5.38;;
41253;SDS011;26987;59.928;30.306;2022-08-25T09:42:57;14.50;;;5.75;;
41253;SDS011;26987;59.928;30.306;2022-08-25T09:45:31;12.90;;;4.93;;
41253;SDS011;26987;59.928;30.306;2022-08-25T09:48:18;14.60;;;5.13;;
41253;SDS011;26987;59.928;30.306;2022-08-25T09:50:50;14.18;;;5.38;;
41253;SDS011;26987;59.928;30.306;2022-08-25T09:53:20;15.32;;;6.55;;
41253;SDS011;26987;59.928;30.306;2022-08-25T09:55:51;22.23;;;9.40;;
41253;SDS011;26987;59.928;30.306;2022-08-25T09:58:25;18.42;;;6.70;;
41253;SDS011;26987;59.928;30.306;2022-08-25T10:00:59;14.48;;;5.15;;
41253;SDS011;26987;59.928;30.306;2022-08-25T10:03:55;15.20;;;5.20;;
41253;SDS011;26987;59.928;30.306;2022-08-25T10:06:27;17.45;;;5.50;;
41253;SDS011;26987;59.928;30.306;2022-08-25T10:09:00;18.02;;;6.00;;
41253;SDS011;26987;59.928;30.306;2022-08-25T10:11:33;10.13;;;5.90;;
41253;SDS011;26987;59.928;30.306;2022-08-25T10:14:07;12.63;;;5.63;;
41253;SDS011;26987;59.928;30.306;2022-08-25T10:16:44;9.63;;;5.07;;
41253;SDS011;26987;59.928;30.306;2022-08-25T10:19:22;14.70;;;5.45;;
41253;SDS011;26987;59.928;30.306;2022-08-25T10:22:03;12.65;;;4.95;;
41253;SDS011;26987;59.928;30.306;2022-08-25T10:24:33;13.52;;;4.88;;
41253;SDS011;26987;59.928;30.306;2022-08-25T10:27:08;13.77;;;5.35;;
41253;SDS011;26987;59.928;30.306;2022-08-25T10:29:52;12.82;;;6.20;;
41253;SDS011;26987;59.928;30.306;2022-08-25T10:32:31;13.25;;;5.72;;
41253;SDS011;26987;59.928;30.306;2022-08-25T10:35:18;11.10;;;5.78;;
41253;SDS011;26987;59.928;30.306;2022-08-25T10:37:54;18.23;;;8.43;;
41253;SDS011;26987;59.928;30.306;2022-08-25T10:40:32;15.00;;;6.05;;
41253;SDS011;26987;59.928;30.306;2022-08-25T10:43:23;10.25;;;5.00;;
41253;SDS011;26987;59.928;30.306;2022-08-25T10:45:59;15.18;;;5.40;;
41253;SDS011;26987;59.928;30.306;2022-08-25T10:48:50;12.63;;;5.90;;
41253;SDS011;26987;59.928;30.306;2022-08-25T10:54:29;8.07;;;5.00;;
41253;SDS011;26987;59.928;30.306;2022-08-25T10:57:11;12.55;;;4.93;;
41253;SDS011;26987;59.928;30.306;2022-08-25T10:59:50;16.17;;;5.38;;
41253;SDS011;26987;59.928;30.306;2022-08-25T11:05:32;6.25;;;4.18;;
41253;SDS011;26987;59.928;30.306;2022-08-25T11:08:07;5.80;;;3.92;;
41253;SDS011;26987;59.928;30.306;2022-08-25T11:10:43;7.70;;;4.40;;
41253;SDS011;26987;59.928;30.306;2022-08-25T11:13:16;8.82;;;4.00;;
41253;SDS011;26987;59.928;30.306;2022-08-25T11:15:52;9.43;;;3.53;;
41253;SDS011;26987;59.928;30.306;2022-08-25T11:18:22;9.65;;;3.70;;
41253;SDS011;26987;59.928;30.306;2022-08-25T11:20:59;7.82;;;4.50;;
41253;SDS011;26987;59.928;30.306;2022-08-25T11:23:34;19.25;;;4.47;;
41253;SDS011;26987;59.928;30.306;2022-08-25T11:26:09;9.77;;;3.70;;
41253;SDS011;26987;59.928;30.306;2022-08-25T11:28:42;14.02;;;4.03;;
41253;SDS011;26987;59.928;30.306;2022-08-25T11:31:18;31.00;;;14.25;;
41253;SDS011;26987;59.928;30.306;2022-08-25T11:33:49;17.02;;;8.60;;
41253;SDS011;26987;59.928;30.306;2022-08-25T11:36:19;9.20;;;3.90;;
41253;SDS011;26987;59.928;30.306;2022-08-25T11:38:56;11.23;;;3.33;;
41253;SDS011;26987;59.928;30.306;2022-08-25T11:41:38;10.77;;;4.22;;
41253;SDS011;26987;59.928;30.306;2022-08-25T11:44:16;11.13;;;3.78;;
41253;SDS011;26987;59.928;30.306;2022-08-25T11:47:04;8.90;;;3.63;;
41253;SDS011;26987;59.928;30.306;2022-08-25T11:49:47;13.60;;;3.70;;
41253;SDS011;26987;59.928;30.306;2022-08-25T11:55:11;14.50;;;3.72;;
41253;SDS011;26987;59.928;30.306;2022-08-25T11:57:43;6.15;;;3.15;;
41253;SDS011;26987;59.928;30.306;2022-08-25T12:00:13;5.72;;;2.78;;
41253;SDS011;26987;59.928;30.306;2022-08-25T12:06:15;10.75;;;3.25;;
41253;SDS011;26987;59.928;30.306;2022-08-25T12:11:51;21.85;;;3.65;;
41253;SDS011;26987;59.928;30.306;2022-08-25T12:14:37;9.00;;;3.22;;
41253;SDS011;26987;59.928;30.306;2022-08-25T12:17:18;5.95;;;2.60;;
41253;SDS011;26987;59.928;30.306;2022-08-25T12:19:52;6.20;;;3.15;;
41253;SDS011;26987;59.928;30.306;2022-08-25T12:22:38;16.30;;;7.97;;
41253;SDS011;26987;59.928;30.306;2022-08-25T12:25:20;12.20;;;5.00;;
41253;SDS011;26987;59.928;30.306;2022-08-25T12:28:00;12.93;;;3.38;;
41253;SDS011;26987;59.928;30.306;2022-08-25T12:30:39;16.20;;;3.08;;
41253;SDS011;26987;59.928;30.306;2022-08-25T12:33:14;8.25;;;2.42;;
41253;SDS011;26987;59.928;30.306;2022-08-25T12:35:52;6.82;;;2.60;;
41253;SDS011;26987;59.928;30.306;2022-08-25T12:38:27;5.55;;;2.80;;
41253;SDS011;26987;59.928;30.306;2022-08-25T12:40:59;9.68;;;3.13;;
41253;SDS011;26987;59.928;30.306;2022-08-25T12:43:31;8.07;;;2.88;;
41253;SDS011;26987;59.928;30.306;2022-08-25T12:49:03;11.48;;;3.25;;
41253;SDS011;26987;59.928;30.306;2022-08-25T12:51:49;7.28;;;2.40;;
41253;SDS011;26987;59.928;30.306;2022-08-25T12:54:23;7.13;;;2.45;;
41253;SDS011;26987;59.928;30.306;2022-08-25T12:56:59;15.25;;;8.18;;
41253;SDS011;26987;59.928;30.306;2022-08-25T12:59:34;12.75;;;6.85;;
41253;SDS011;26987;59.928;30.306;2022-08-25T13:02:16;12.75;;;4.57;;
41253;SDS011;26987;59.928;30.306;2022-08-25T13:05:10;9.68;;;2.92;;
41253;SDS011;26987;59.928;30.306;2022-08-25T13:08:00;8.38;;;2.38;;
41253;SDS011;26987;59.928;30.306;2022-08-25T13:10:45;3.47;;;1.40;;
41253;SDS011;26987;59.928;30.306;2022-08-25T13:13:22;12.88;;;9.45;;
41253;SDS011;26987;59.928;30.306;2022-08-25T13:18:36;9.27;;;2.00;;
41253;SDS011;26987;59.928;30.306;2022-08-25T13:21:06;6.82;;;1.83;;
41253;SDS011;26987;59.928;30.306;2022-08-25T13:23:41;6.40;;;2.15;;
41253;SDS011;26987;59.928;30.306;2022-08-25T13:26:13;5.88;;;1.38;;
41253;SDS011;26987;59.928;30.306;2022-08-25T13:28:43;4.85;;;1.73;;
41253;SDS011;26987;59.928;30.306;2022-08-25T13:31:20;3.40;;;1.65;;
41253;SDS011;26987;59.928;30.306;2022-08-25T13:33:55;5.07;;;1.70;;
41253;SDS011;26987;59.928;30.306;2022-08-25T13:36:26;5.45;;;1.65;;
41253;SDS011;26987;59.928;30.306;2022-08-25T13:39:13;5.13;;;1.45;;
41253;SDS011;26987;59.928;30.306;2022-08-25T13:41:43;5.35;;;1.80;;
41253;SDS011;26987;59.928;30.306;2022-08-25T13:44:13;2.67;;;1.17;;
41253;SDS011;26987;59.928;30.306;2022-08-25T13:46:42;4.25;;;1.40;;
41253;SDS011;26987;59.928;30.306;2022-08-25T13:49:23;3.10;;;1.40;;
41253;SDS011;26987;59.928;30.306;2022-08-25T13:51:53;3.88;;;1.35;;
41253;SDS011;26987;59.928;30.306;2022-08-25T13:54:23;3.83;;;1.38;;
41253;SDS011;26987;59.928;30.306;2022-08-25T13:57:02;3.13;;;1.27;;
41253;SDS011;26987;59.928;30.306;2022-08-25T13:59:33;23.73;;;11.45;;
41253;SDS011;26987;59.928;30.306;2022-08-25T14:02:04;2.17;;;1.40;;
41253;SDS011;26987;59.928;30.306;2022-08-25T14:04:44;1.67;;;0.98;;
41253;SDS011;26987;59.928;30.306;2022-08-25T14:07:25;5.75;;;1.00;;
41253;SDS011;26987;59.928;30.306;2022-08-25T14:09:56;3.33;;;1.13;;
41253;SDS011;26987;59.928;30.306;2022-08-25T14:12:26;3.17;;;0.70;;
41253;SDS011;26987;59.928;30.306;2022-08-25T14:17:30;3.47;;;0.80;;
41253;SDS011;26987;59.928;30.306;2022-08-25T14:20:00;1.77;;;0.80;;
41253;SDS011;26987;59.928;30.306;2022-08-25T14:22:28;4.30;;;1.20;;
41253;SDS011;26987;59.928;30.306;2022-08-25T14:24:56;1.52;;;0.70;;
41253;SDS011;26987;59.928;30.306;2022-08-25T14:27:24;10.27;;;1.15;;
41253;SDS011;26987;59.928;30.306;2022-08-25T14:29:52;1.67;;;0.80;;
41253;SDS011;26987;59.928;30.306;2022-08-25T14:32:20;1.65;;;0.85;;
41253;SDS011;26987;59.928;30.306;2022-08-25T14:34:48;1.90;;;0.73;;
41253;SDS011;26987;59.928;30.306;2022-08-25T14:37:18;4.78;;;0.70;;
41253;SDS011;26987;59.928;30.306;2022-08-25T14:39:46;1.73;;;0.57;;
41253;SDS011;26987;59.928;30.306;2022-08-25T14:42:14;1.00;;;0.68;;
41253;SDS011;26987;59.928;30.306;2022-08-25T14:44:43;3.38;;;0.68;;
41253;SDS011;26987;59.928;30.306;2022-08-25T14:47:10;2.10;;;0.60;;
41253;SDS011;26987;59.928;30.306;2022-08-25T14:49:39;3.35;;;2.28;;
41253;SDS011;26987;59.928;30.306;2022-08-25T14:52:13;3.30;;;1.80;;
41253;SDS011;26987;59.928;30.306;2022-08-25T14:54:47;6.45;;;0.93;;
41253;SDS011;26987;59.928;30.306;2022-08-25T14:57:15;2.10;;;0.88;;
41253;SDS011;26987;59.928;30.306;2022-08-25T14:59:43;2.95;;;0.95;;
41253;SDS011;26987;59.928;30.306;2022-08-25T15:02:11;3.40;;;0.57;;
41253;SDS011;26987;59.928;30.306;2022-08-25T15:04:43;8.20;;;0.80;;
41253;SDS011;26987;59.928;30.306;2022-08-25T15:07:15;4.93;;;0.68;;
41253;SDS011;26987;59.928;30.306;2022-08-25T15:10:02;1.35;;;0.77;;
41253;SDS011;26987;59.928;30.306;2022-08-25T15:12:30;3.67;;;0.77;;
41253;SDS011;26987;59.928;30.306;2022-08-25T15:14:58;2.53;;;0.60;;